Time;durP1;ratioP1;P1;durP2;ratioP2;P2;SDS_P1;SDS_P2;PMS_P1;PMS_P2;Temp;Humidity;BMP_temperature;BMP_pressure;BME280_temperature;BME280_humidity;BME280_pressure;Samples;Min_cycle;Max_cycle;Signal;HPM_P1;HPM_P2
2021/06/17 00:00:19;;;;;;;7.13;3.63;;;21.50;1.00;;;;;;5142030;27;20589;-84
2021/06/17 00:02:46;;;;;;;5.90;3.80;;;21.50;1.00;;;;;;5144964;27;20266;-85
2021/06/17 00:05:15;;;;;;;4.73;2.93;;;21.50;1.00;;;;;;5146163;27;20453;-84
2021/06/17 00:07:41;;;;;;;3.90;3.07;;;21.50;1.00;;;;;;5145671;27;20774;-84
2021/06/17 00:10:10;;;;;;;3.87;3.10;;;21.50;1.00;;;;;;5138917;27;20441;-84
2021/06/17 00:12:37;;;;;;;6.83;4.47;;;21.50;1.00;;;;;;5142171;27;20470;-84
2021/06/17 00:15:06;;;;;;;5.30;3.17;;;21.50;1.00;;;;;;5144921;27;20419;-84
2021/06/17 00:17:31;;;;;;;5.03;3.77;;;21.40;1.00;;;;;;5146609;27;20409;-84
2021/06/17 00:19:57;;;;;;;3.40;3.10;;;21.40;1.00;;;;;;5144513;27;21014;-85
2021/06/17 00:22:22;;;;;;;4.60;4.03;;;21.40;1.00;;;;;;5145425;27;20163;-85
2021/06/17 00:24:48;;;;;;;4.37;3.37;;;21.40;1.00;;;;;;5146167;27;20172;-84
2021/06/17 00:27:14;;;;;;;3.70;3.37;;;21.30;1.00;;;;;;5142832;27;20181;-85
2021/06/17 00:29:40;;;;;;;5.27;3.70;;;21.30;1.00;;;;;;5142613;27;20252;-84
2021/06/17 00:32:06;;;;;;;4.53;3.93;;;21.30;1.00;;;;;;5133072;27;20545;-85
2021/06/17 00:34:31;;;;;;;3.17;2.73;;;21.30;1.00;;;;;;5114171;28;20174;-86
2021/06/17 00:36:57;;;;;;;4.87;3.27;;;21.30;1.00;;;;;;5113227;28;20425;-86
2021/06/17 00:39:22;;;;;;;5.93;3.07;;;21.20;1.00;;;;;;5114447;28;20177;-86
2021/06/17 00:41:48;;;;;;;3.37;3.07;;;21.20;1.00;;;;;;5114283;28;20527;-86
2021/06/17 00:44:14;;;;;;;3.63;2.77;;;21.20;1.00;;;;;;5117307;27;20215;-87
2021/06/17 00:46:39;;;;;;;5.07;3.50;;;21.20;1.00;;;;;;5133391;27;20209;-86
2021/06/17 00:49:05;;;;;;;5.10;2.57;;;21.10;1.00;;;;;;5134741;27;20179;-86
2021/06/17 00:51:32;;;;;;;4.80;2.97;;;21.10;1.00;;;;;;5132905;27;20693;-86
2021/06/17 00:53:57;;;;;;;4.93;3.20;;;21.10;1.00;;;;;;5132729;27;20797;-86
2021/06/17 00:56:24;;;;;;;6.23;2.30;;;21.10;1.00;;;;;;5134680;27;20415;-86
2021/06/17 00:58:51;;;;;;;3.63;2.70;;;21.00;1.00;;;;;;5134945;27;20248;-86
2021/06/17 01:01:17;;;;;;;3.27;2.97;;;21.00;1.00;;;;;;5133487;27;20430;-85
2021/06/17 01:03:42;;;;;;;3.17;2.87;;;21.00;1.00;;;;;;5134773;27;20433;-86
2021/06/17 01:06:09;;;;;;;6.30;3.37;;;21.00;1.00;;;;;;5134349;27;20214;-86
2021/06/17 01:09:02;;;;;;;5.17;2.33;;;21.00;1.00;;;;;;5134770;27;20265;-86
2021/06/17 01:11:50;;;;;;;3.80;2.53;;;20.90;1.00;;;;;;5134524;27;21948;-86
2021/06/17 01:14:22;;;;;;;4.13;2.97;;;20.90;1.00;;;;;;5134649;27;20411;-86
2021/06/17 01:16:57;;;;;;;3.63;2.73;;;20.90;1.00;;;;;;5134699;27;20411;-86
2021/06/17 01:19:26;;;;;;;4.17;2.40;;;20.80;1.00;;;;;;5134144;27;20506;-87
2021/06/17 01:22:17;;;;;;;4.60;3.13;;;20.80;1.00;;;;;;5134471;27;20410;-86
2021/06/17 01:25:14;;;;;;;4.47;3.80;;;20.80;1.00;;;;;;5134577;27;20831;-86
2021/06/17 01:27:54;;;;;;;2.30;2.10;;;20.80;1.00;;;;;;5113848;28;20415;-86
2021/06/17 01:30:22;;;;;;;2.37;1.93;;;20.70;1.00;;;;;;5113714;28;20419;-86
2021/06/17 01:32:53;;;;;;;5.37;2.57;;;20.60;1.00;;;;;;5113796;28;20423;-87
2021/06/17 01:35:22;;;;;;;4.00;2.23;;;20.60;1.00;;;;;;5113333;28;20411;-87
2021/06/17 01:37:52;;;;;;;5.03;2.33;;;20.60;1.00;;;;;;5112479;28;20426;-87
2021/06/17 01:40:19;;;;;;;5.70;3.07;;;20.50;1.00;;;;;;5113687;28;20963;-89
2021/06/17 01:42:45;;;;;;;7.27;1.80;;;20.50;1.00;;;;;;5112433;28;20451;-87
2021/06/17 01:45:12;;;;;;;3.97;2.53;;;20.50;1.00;;;;;;5113538;28;20456;-89
2021/06/17 01:47:38;;;;;;;3.60;2.33;;;20.50;1.00;;;;;;5113607;28;20510;-87
2021/06/17 01:50:06;;;;;;;4.13;1.80;;;20.50;1.00;;;;;;5113222;28;20413;-86
2021/06/17 01:52:32;;;;;;;4.10;2.10;;;20.40;1.00;;;;;;5113338;28;20419;-86
2021/06/17 01:55:00;;;;;;;2.87;2.67;;;20.40;1.00;;;;;;5113523;28;20420;-85
2021/06/17 01:57:27;;;;;;;5.23;2.27;;;20.40;1.00;;;;;;5112181;28;20430;-85
2021/06/17 01:59:54;;;;;;;2.43;1.70;;;20.40;1.00;;;;;;5113339;28;20426;-87
2021/06/17 02:02:20;;;;;;;3.20;1.90;;;20.40;1.00;;;;;;5113380;28;20423;-89
2021/06/17 02:04:51;;;;;;;4.43;2.10;;;20.40;1.00;;;;;;5112882;28;20584;-87
2021/06/17 02:07:20;;;;;;;2.43;1.83;;;20.40;1.00;;;;;;5113232;28;20440;-87
2021/06/17 02:09:49;;;;;;;6.00;2.00;;;20.40;1.00;;;;;;5111843;28;20975;-86
2021/06/17 02:12:15;;;;;;;4.17;1.87;;;20.30;1.00;;;;;;5113016;28;20458;-87
2021/06/17 02:14:43;;;;;;;4.80;2.00;;;20.30;1.00;;;;;;5113252;28;20505;-87
2021/06/17 02:17:10;;;;;;;3.70;2.10;;;20.20;1.00;;;;;;5111841;28;20184;-87
2021/06/17 02:19:37;;;;;;;2.80;1.87;;;20.20;1.00;;;;;;5111526;28;20438;-88
2021/06/17 02:22:04;;;;;;;7.30;2.20;;;20.20;1.00;;;;;;5111874;28;20430;-87
2021/06/17 02:24:34;;;;;;;2.60;1.93;;;20.20;1.00;;;;;;5111804;28;20423;-86
2021/06/17 02:27:08;;;;;;;3.13;2.27;;;20.10;1.00;;;;;;5111731;28;20477;-86
2021/06/17 02:29:40;;;;;;;3.80;2.17;;;20.10;1.00;;;;;;5111769;28;20560;-87
2021/06/17 02:32:07;;;;;;;3.00;1.87;;;20.10;1.00;;;;;;5113120;28;20416;-86
2021/06/17 02:34:34;;;;;;;5.80;2.27;;;20.10;1.00;;;;;;5112775;28;20925;-87
2021/06/17 02:37:00;;;;;;;4.50;1.67;;;20.00;1.00;;;;;;5113019;28;20411;-86
2021/06/17 02:39:28;;;;;;;2.67;2.43;;;20.00;1.00;;;;;;5111656;28;20427;-87
2021/06/17 02:41:57;;;;;;;3.23;2.03;;;19.90;1.00;;;;;;5111696;28;20419;-86
2021/06/17 02:44:24;;;;;;;3.27;1.90;;;19.90;1.00;;;;;;5112818;28;20414;-86
2021/06/17 02:46:51;;;;;;;1.97;1.80;;;19.90;1.00;;;;;;5112895;28;20476;-85
2021/06/17 02:49:17;;;;;;;3.40;2.90;;;19.80;1.00;;;;;;5112451;28;20416;-86
2021/06/17 02:51:43;;;;;;;5.07;2.03;;;19.80;1.00;;;;;;5111806;28;20499;-86
2021/06/17 02:54:09;;;;;;;6.07;2.70;;;19.80;1.00;;;;;;5116189;28;21156;-85
2021/06/17 02:57:15;;;;;;;3.47;2.23;;;19.80;1.00;;;;;;5115440;28;20432;-86
2021/06/17 02:59:57;;;;;;;3.83;2.10;;;19.70;1.00;;;;;;5115405;28;20410;-86
2021/06/17 03:02:36;;;;;;;3.43;2.50;;;19.70;1.00;;;;;;5116683;27;20490;-85
2021/06/17 03:05:23;;;;;;;4.00;2.27;;;19.70;1.00;;;;;;5114860;28;20500;-86
2021/06/17 03:07:57;;;;;;;3.40;1.93;;;19.70;1.00;;;;;;5115173;28;20434;-86
2021/06/17 03:10:23;;;;;;;4.17;2.87;;;19.70;1.00;;;;;;5115222;28;20406;-86
2021/06/17 03:12:51;;;;;;;2.07;1.80;;;19.60;1.00;;;;;;5116292;28;20456;-86
2021/06/17 03:15:17;;;;;;;4.40;2.50;;;19.60;1.00;;;;;;5115188;28;20792;-85
2021/06/17 03:17:46;;;;;;;2.43;2.10;;;19.60;1.00;;;;;;5116355;28;20408;-86
2021/06/17 03:20:13;;;;;;;3.03;2.07;;;19.60;1.00;;;;;;5115987;28;20415;-86
2021/06/17 03:22:46;;;;;;;3.53;2.63;;;19.60;1.00;;;;;;5116334;28;20414;-86
2021/06/17 03:25:14;;;;;;;4.10;1.73;;;19.50;1.00;;;;;;5116127;28;20406;-85
2021/06/17 03:27:41;;;;;;;4.07;2.73;;;19.50;1.00;;;;;;5116297;28;20455;-86
2021/06/17 03:30:07;;;;;;;3.80;1.87;;;19.40;1.00;;;;;;5114958;28;20416;-85
2021/06/17 03:32:36;;;;;;;4.00;2.10;;;19.40;1.00;;;;;;5114844;28;20513;-85
2021/06/17 03:35:02;;;;;;;4.47;1.97;;;19.50;1.00;;;;;;5115636;28;20464;-87
2021/06/17 03:37:29;;;;;;;3.87;2.17;;;19.50;1.00;;;;;;5114692;28;20423;-85
2021/06/17 03:39:58;;;;;;;5.50;2.83;;;19.50;1.00;;;;;;5115991;28;20519;-85
2021/06/17 03:42:25;;;;;;;3.87;2.30;;;19.50;1.00;;;;;;5115832;28;20424;-84
2021/06/17 03:44:51;;;;;;;4.63;2.33;;;19.40;1.00;;;;;;5115828;28;20927;-87
2021/06/17 03:47:20;;;;;;;3.77;3.43;;;19.40;1.00;;;;;;5115725;28;20470;-85
2021/06/17 03:49:46;;;;;;;5.53;2.70;;;19.40;1.00;;;;;;5115376;28;20422;-85
2021/06/17 03:52:15;;;;;;;4.93;2.40;;;19.50;1.00;;;;;;5115690;28;20400;-85
2021/06/17 03:54:45;;;;;;;5.37;2.20;;;19.60;1.00;;;;;;5115600;28;20416;-85
2021/06/17 03:57:11;;;;;;;3.00;2.30;;;19.50;1.00;;;;;;5115553;28;20408;-86
2021/06/17 03:59:42;;;;;;;2.63;1.80;;;19.50;1.00;;;;;;5115558;28;20459;-86
2021/06/17 04:02:09;;;;;;;3.73;1.90;;;19.50;1.00;;;;;;5115565;28;20411;-86
2021/06/17 04:04:36;;;;;;;8.97;2.63;;;19.50;1.00;;;;;;5113738;28;20407;-85
2021/06/17 04:07:05;;;;;;;4.17;2.67;;;19.50;1.00;;;;;;5115354;28;20464;-86
2021/06/17 04:09:36;;;;;;;5.20;2.50;;;19.50;1.00;;;;;;5115333;28;20924;-86
2021/06/17 04:12:14;;;;;;;5.10;1.70;;;19.60;1.00;;;;;;5115056;28;20565;-86
2021/06/17 04:14:43;;;;;;;3.40;2.17;;;19.60;1.00;;;;;;5115340;28;20467;-87
2021/06/17 04:17:12;;;;;;;1.70;1.60;;;19.50;1.00;;;;;;5115244;28;20761;-85
2021/06/17 04:19:40;;;;;;;6.03;1.60;;;19.50;1.00;;;;;;5114844;28;20466;-86
2021/06/17 04:22:09;;;;;;;4.77;2.80;;;19.60;1.00;;;;;;5113697;28;20428;-85
2021/06/17 04:24:38;;;;;;;2.83;1.83;;;19.60;1.00;;;;;;5115174;28;20427;-86
2021/06/17 04:27:06;;;;;;;5.27;2.83;;;19.70;1.00;;;;;;5114944;28;20876;-87
2021/06/17 04:29:37;;;;;;;2.73;2.33;;;19.70;1.00;;;;;;5114957;28;20464;-86
2021/06/17 04:32:04;;;;;;;4.40;2.70;;;19.70;1.00;;;;;;5114930;28;20770;-86
2021/06/17 04:34:31;;;;;;;6.57;3.20;;;19.70;1.00;;;;;;5113166;28;20493;-86
2021/06/17 04:36:57;;;;;;;4.30;2.47;;;19.80;1.00;;;;;;5114936;28;20920;-86
2021/06/17 04:39:27;;;;;;;4.97;2.70;;;19.90;1.00;;;;;;5113569;28;20826;-85
2021/06/17 04:41:53;;;;;;;3.87;3.47;;;19.80;1.00;;;;;;5114725;28;20502;-86
2021/06/17 04:44:21;;;;;;;8.03;4.37;;;19.80;1.00;;;;;;5114583;28;20416;-86
2021/06/17 04:46:47;;;;;;;14.20;5.77;;;19.90;1.00;;;;;;5114316;28;20462;-86
2021/06/17 04:49:15;;;;;;;8.37;5.20;;;19.90;1.00;;;;;;5112934;28;20422;-86
2021/06/17 04:51:42;;;;;;;10.07;4.67;;;20.10;1.00;;;;;;5114447;28;20513;-86
2021/06/17 04:54:09;;;;;;;7.17;3.20;;;20.10;1.00;;;;;;5114446;28;20406;-86
2021/06/17 04:56:35;;;;;;;7.53;3.60;;;20.10;1.00;;;;;;5114424;28;20413;-86
2021/06/17 04:59:00;;;;;;;3.13;2.80;;;20.20;1.00;;;;;;5114351;28;20467;-87
2021/06/17 05:01:26;;;;;;;4.73;3.40;;;20.20;1.00;;;;;;5114380;28;20419;-87
2021/06/17 05:03:51;;;;;;;6.77;3.53;;;20.20;1.00;;;;;;5113929;28;20176;-87
2021/06/17 05:06:19;;;;;;;4.30;3.30;;;20.30;1.00;;;;;;5114015;28;20299;-86
2021/06/17 05:11:29;;;;;;;4.87;3.07;;;20.50;1.00;;;;;;5114002;28;20544;-86
2021/06/17 05:13:55;;;;;;;6.73;3.37;;;20.50;1.00;;;;;;5112803;28;20451;-87
2021/06/17 05:16:21;;;;;;;3.87;2.70;;;20.60;1.00;;;;;;5112220;28;20478;-89
2021/06/17 05:18:47;;;;;;;6.03;2.77;;;20.70;1.00;;;;;;5113930;28;20172;-86
2021/06/17 05:21:13;;;;;;;3.50;3.20;;;20.70;1.00;;;;;;5114139;28;20172;-88
2021/06/17 05:23:39;;;;;;;3.20;2.37;;;20.70;1.00;;;;;;5114058;28;20478;-86
2021/06/17 05:26:06;;;;;;;3.97;2.70;;;21.00;1.00;;;;;;5113975;28;20206;-87
2021/06/17 05:28:32;;;;;;;3.73;2.63;;;21.10;1.00;;;;;;5113845;28;20420;-87
2021/06/17 05:31:00;;;;;;;4.17;3.03;;;21.20;1.00;;;;;;5113735;28;20444;-86
2021/06/17 05:33:28;;;;;;;4.80;2.60;;;21.40;1.00;;;;;;5112330;28;20174;-89
2021/06/17 05:35:54;;;;;;;2.93;2.60;;;21.60;1.00;;;;;;5113834;28;20452;-86
2021/06/17 05:38:22;;;;;;;3.90;2.63;;;21.60;1.00;;;;;;5113647;28;20444;-87
2021/06/17 05:40:48;;;;;;;6.03;2.97;;;21.70;1.00;;;;;;5113712;28;20171;-86
2021/06/17 05:43:14;;;;;;;3.70;3.27;;;21.90;1.00;;;;;;5113516;28;20430;-86
2021/06/17 05:45:40;;;;;;;5.27;3.10;;;22.10;1.00;;;;;;5130271;27;20241;-86
2021/06/17 05:48:06;;;;;;;5.90;3.47;;;22.40;1.00;;;;;;5134017;27;20174;-86
2021/06/17 05:50:32;;;;;;;3.90;3.60;;;22.40;1.00;;;;;;5133688;27;20754;-85
2021/06/17 05:52:58;;;;;;;4.30;3.50;;;22.30;1.00;;;;;;5134144;27;20418;-86
2021/06/17 05:55:23;;;;;;;3.80;3.10;;;22.10;1.00;;;;;;5134182;27;20932;-86
2021/06/17 05:57:49;;;;;;;5.20;3.03;;;22.20;1.00;;;;;;5133907;27;20173;-87
2021/06/17 06:00:16;;;;;;;4.23;3.53;;;22.30;1.00;;;;;;5134066;27;20634;-86
2021/06/17 06:02:42;;;;;;;4.03;3.57;;;22.30;1.00;;;;;;5133909;27;20535;-85
2021/06/17 06:05:08;;;;;;;3.93;3.13;;;22.40;1.00;;;;;;5133462;27;20517;-87
2021/06/17 06:07:34;;;;;;;5.40;3.93;;;22.60;1.00;;;;;;5133950;27;20539;-85
2021/06/17 06:10:00;;;;;;;4.67;4.03;;;22.80;1.00;;;;;;5133828;27;20408;-88
2021/06/17 06:12:27;;;;;;;6.23;4.47;;;22.60;1.00;;;;;;5133522;27;20524;-85
2021/06/17 06:14:52;;;;;;;4.60;4.10;;;22.80;1.00;;;;;;5133678;27;20457;-85
2021/06/17 06:17:18;;;;;;;5.60;4.40;;;23.00;1.00;;;;;;5132471;28;20413;-86
2021/06/17 06:19:44;;;;;;;8.10;5.10;;;22.80;1.00;;;;;;5133777;27;20517;-86
2021/06/17 06:22:10;;;;;;;4.37;3.93;;;23.20;1.00;;;;;;5133623;28;20409;-86
2021/06/17 06:24:38;;;;;;;8.10;5.07;;;23.60;1.00;;;;;;5133805;27;20439;-89
2021/06/17 06:27:07;;;;;;;4.00;3.30;;;23.40;1.00;;;;;;5132524;27;20575;-89
2021/06/17 06:29:34;;;;;;;4.20;3.80;;;23.70;99.90;;;;;;5137822;27;20451;-88
2021/06/17 06:32:00;;;;;;;5.77;4.60;;;23.70;99.90;;;;;;5136767;27;20421;-87
2021/06/17 06:34:26;;;;;;;4.97;3.73;;;23.80;1.00;;;;;;5137536;27;20413;-85
2021/06/17 06:36:52;;;;;;;6.10;4.93;;;24.20;1.00;;;;;;5137771;27;20443;-89
2021/06/17 06:39:20;;;;;;;5.03;4.63;;;24.30;99.90;;;;;;5137790;27;20459;-86
2021/06/17 06:41:45;;;;;;;5.23;4.60;;;24.10;99.90;;;;;;5137686;27;20494;-89
2021/06/17 06:44:11;;;;;;;5.40;4.50;;;24.20;99.90;;;;;;5155634;27;20446;-87
2021/06/17 06:46:41;;;;;;;5.53;4.73;;;24.30;99.90;;;;;;5158221;27;20267;-86
2021/06/17 06:49:07;;;;;;;8.23;6.10;;;24.20;99.90;;;;;;5157801;27;20404;-86
2021/06/17 06:51:41;;;;;;;5.43;4.70;;;24.60;99.90;;;;;;5158116;27;20417;-85
2021/06/17 06:54:07;;;;;;;7.77;6.00;;;25.00;99.90;;;;;;5158193;27;20429;-86
2021/06/17 06:56:33;;;;;;;6.13;4.70;;;25.40;1.00;;;;;;5156733;27;20508;-84
2021/06/17 06:58:59;;;;;;;5.83;5.33;;;25.40;1.00;;;;;;5157994;27;20774;-85
2021/06/17 07:01:24;;;;;;;6.10;5.60;;;25.90;36.00;;;;;;5157910;27;20419;-85
2021/06/17 07:03:50;;;;;;;7.97;5.63;;;26.30;99.90;;;;;;5137721;27;20187;-85
2021/06/17 07:06:15;;;;;;;5.90;5.20;;;27.50;99.90;;;;;;5136955;27;20216;-85
2021/06/17 07:08:41;;;;;;;5.90;4.97;;;28.30;99.90;;;;;;5116489;27;20238;-88
2021/06/17 07:11:06;;;;;;;5.90;4.53;;;28.60;99.90;;;;;;5115206;28;20258;-88
2021/06/17 07:13:32;;;;;;;9.63;4.80;;;28.90;1.00;;;;;;5126605;27;20214;-94
2021/06/17 07:15:58;;;;;;;4.83;4.43;;;29.40;40.90;;;;;;5126541;27;20186;-81
2021/06/17 07:18:23;;;;;;;4.90;4.50;;;30.10;1.00;;;;;;5115905;28;20216;-81
2021/06/17 07:20:49;;;;;;;4.57;4.17;;;29.90;99.90;;;;;;5131611;27;20186;-82
2021/06/17 07:23:15;;;;;;;6.63;4.00;;;30.30;1.00;;;;;;5147692;27;20253;-82
2021/06/17 07:25:41;;;;;;;6.67;4.50;;;30.60;99.90;;;;;;5146619;27;20626;-81
2021/06/17 07:28:07;;;;;;;5.20;4.70;;;30.60;99.90;;;;;;5146201;27;20273;-81
2021/06/17 07:30:33;;;;;;;6.33;4.87;;;30.70;99.90;;;;;;5147437;27;20495;-82
2021/06/17 07:32:58;;;;;;;5.50;4.83;;;30.90;99.90;;;;;;5148168;27;20175;-81
2021/06/17 07:35:24;;;;;;;6.43;4.23;;;30.60;99.90;;;;;;5148443;27;20174;-81
2021/06/17 07:37:50;;;;;;;5.17;4.77;;;30.70;99.90;;;;;;5146146;27;20185;-82
2021/06/17 07:40:17;;;;;;;5.93;5.43;;;30.50;99.90;;;;;;5144642;27;20265;-81
2021/06/17 07:42:44;;;;;;;5.03;4.57;;;30.60;99.90;;;;;;5146087;27;20175;-81
2021/06/17 07:45:10;;;;;;;6.60;5.43;;;31.50;99.90;;;;;;5145420;27;20451;-81
2021/06/17 07:47:37;;;;;;;9.20;5.80;;;31.30;99.90;;;;;;5142464;27;20452;-82
2021/06/17 07:50:04;;;;;;;4.67;4.23;;;31.30;99.90;;;;;;5146218;27;20439;-82
2021/06/17 07:52:30;;;;;;;8.23;6.17;;;30.60;99.90;;;;;;5147097;27;20424;-82
2021/06/17 07:54:55;;;;;;;5.23;4.83;;;31.30;99.90;;;;;;5145150;27;20420;-81
2021/06/17 07:57:21;;;;;;;5.53;4.83;;;32.00;99.90;;;;;;5146538;27;20174;-81
2021/06/17 07:59:47;;;;;;;6.20;5.10;;;31.70;99.90;;;;;;5146509;27;20175;-82
2021/06/17 08:02:12;;;;;;;5.40;4.90;;;32.00;99.90;;;;;;5131552;27;20179;-81
2021/06/17 08:04:38;;;;;;;5.43;4.80;;;32.00;99.90;;;;;;5142815;27;20182;-82
2021/06/17 08:07:04;;;;;;;5.80;5.30;;;31.80;99.90;;;;;;5144696;27;20209;-82
2021/06/17 08:09:29;;;;;;;5.87;5.47;;;31.20;99.90;;;;;;5146281;27;20227;-81
2021/06/17 08:11:55;;;;;;;5.90;5.50;;;31.40;99.90;;;;;;5143305;27;20207;-81
2021/06/17 08:14:25;;;;;;;5.57;4.80;;;31.80;99.90;;;;;;5146485;27;20245;-82
2021/06/17 08:16:51;;;;;;;8.27;6.03;;;32.40;99.90;;;;;;5146459;27;20206;-83
2021/06/17 08:19:18;;;;;;;6.00;4.43;;;32.80;99.90;;;;;;5144277;27;20404;-82
2021/06/17 08:21:44;;;;;;;8.30;5.10;;;32.80;99.90;;;;;;5139699;27;20412;-82
2021/06/17 08:24:10;;;;;;;8.03;5.47;;;33.20;99.90;;;;;;5144558;27;20421;-82
2021/06/17 08:26:35;;;;;;;6.17;5.57;;;32.80;99.90;;;;;;5142565;27;20566;-81
2021/06/17 08:29:02;;;;;;;6.50;5.03;;;32.50;99.90;;;;;;5144260;27;20220;-82
2021/06/17 08:31:28;;;;;;;6.63;5.00;;;33.00;99.90;;;;;;5145085;27;20641;-82
2021/06/17 08:33:55;;;;;;;5.57;5.10;;;33.70;99.90;;;;;;5145775;27;20450;-82
2021/06/17 08:36:20;;;;;;;5.70;5.20;;;33.30;99.90;;;;;;5155822;27;20206;-79
2021/06/17 08:38:46;;;;;;;5.57;5.07;;;33.60;99.90;;;;;;5154618;27;20458;-79
2021/06/17 08:41:13;;;;;;;5.23;4.77;;;33.50;99.90;;;;;;5155855;27;20201;-79
2021/06/17 08:43:38;;;;;;;6.17;5.57;;;33.30;99.90;;;;;;5155648;27;20178;-79
2021/06/17 08:46:05;;;;;;;5.80;5.30;;;33.40;99.90;;;;;;5114352;28;20475;-79
2021/06/17 08:48:31;;;;;;;6.70;5.70;;;34.00;99.90;;;;;;5114138;28;20179;-79
2021/06/17 08:50:56;;;;;;;6.63;5.93;;;34.10;99.90;;;;;;5129402;27;20430;-79
2021/06/17 08:53:23;;;;;;;5.90;5.40;;;34.60;99.90;;;;;;5118303;27;20166;-79
2021/06/17 08:55:49;;;;;;;6.70;5.20;;;34.50;99.90;;;;;;5134819;27;20205;-79
2021/06/17 08:58:15;;;;;;;5.90;5.50;;;33.90;99.90;;;;;;5134819;27;20973;-79
2021/06/17 09:00:48;;;;;;;6.10;5.63;;;34.20;99.90;;;;;;5134653;27;20461;-79
2021/06/17 09:03:16;;;;;;;7.17;6.37;;;34.50;99.90;;;;;;5134291;27;20455;-80
2021/06/17 09:05:48;;;;;;;5.67;5.17;;;34.30;99.90;;;;;;5134334;27;20455;-79
2021/06/17 09:08:15;;;;;;;6.20;5.40;;;34.50;99.90;;;;;;5133280;27;20777;-80
2021/06/17 09:10:42;;;;;;;7.10;6.37;;;34.30;99.90;;;;;;5134440;27;20412;-80
2021/06/17 09:13:10;;;;;;;6.10;5.37;;;34.10;99.90;;;;;;5134368;27;21101;-79
2021/06/17 09:15:45;;;;;;;5.67;5.20;;;34.70;99.90;;;;;;5128444;27;20431;-79
2021/06/17 09:18:18;;;;;;;6.43;5.80;;;35.00;99.90;;;;;;5123824;27;20546;-80
2021/06/17 09:20:48;;;;;;;8.40;6.30;;;34.70;99.90;;;;;;5132941;27;20420;-80
2021/06/17 09:23:21;;;;;;;6.60;6.10;;;33.80;99.90;;;;;;5134281;27;20457;-79
2021/06/17 09:25:55;;;;;;;6.90;6.40;;;34.20;99.90;;;;;;5135292;27;20453;-79
2021/06/17 09:28:21;;;;;;;6.87;6.27;;;35.00;99.90;;;;;;5146629;27;20407;-80
2021/06/17 09:30:47;;;;;;;6.00;5.40;;;35.40;99.90;;;;;;5135333;27;20409;-79
2021/06/17 09:33:14;;;;;;;8.23;6.07;;;36.10;99.90;;;;;;5133899;27;20758;-80
2021/06/17 09:35:50;;;;;;;9.73;6.10;;;36.20;99.90;;;;;;5133174;27;20404;-80
2021/06/17 09:38:16;;;;;;;6.27;5.77;;;35.50;91.70;;;;;;5132267;27;20408;-79
2021/06/17 09:40:46;;;;;;;5.80;5.50;;;36.00;97.80;;;;;;5133869;27;20408;-79
2021/06/17 09:43:11;;;;;;;6.10;5.70;;;36.50;96.90;;;;;;5134175;27;20166;-79
2021/06/17 09:45:37;;;;;;;7.77;5.50;;;36.50;90.80;;;;;;5134068;27;20835;-78
2021/06/17 09:48:03;;;;;;;5.50;5.20;;;36.20;72.30;;;;;;5121651;27;20179;-79
2021/06/17 09:50:29;;;;;;;6.30;5.80;;;36.70;71.90;;;;;;5126529;27;20555;-78
2021/06/17 09:52:56;;;;;;;6.43;5.80;;;35.80;81.60;;;;;;5142997;27;20407;-79
2021/06/17 09:55:36;;;;;;;5.83;5.43;;;35.90;96.90;;;;;;5138119;27;20540;-79
2021/06/17 09:58:02;;;;;;;6.13;5.53;;;36.20;82.60;;;;;;5123138;27;20445;-79
2021/06/17 10:00:27;;;;;;;5.90;5.47;;;36.40;92.40;;;;;;5124229;27;20455;-79
2021/06/17 10:02:53;;;;;;;6.30;5.87;;;37.00;94.30;;;;;;5127396;27;20923;-82
2021/06/17 10:05:31;;;;;;;5.80;5.30;;;36.70;90.90;;;;;;5130032;27;20325;-81
2021/06/17 10:07:57;;;;;;;5.90;5.50;;;36.90;76.80;;;;;;5121595;27;20196;-82
2021/06/17 10:10:26;;;;;;;6.60;6.13;;;37.40;65.30;;;;;;5139878;27;20412;-82
2021/06/17 10:12:53;;;;;;;6.50;5.97;;;37.10;51.20;;;;;;5132509;27;20456;-82
2021/06/17 10:15:18;;;;;;;6.77;6.07;;;37.10;44.80;;;;;;5141120;27;20404;-81
2021/06/17 10:17:44;;;;;;;6.63;6.03;;;36.50;42.30;;;;;;5139926;27;20512;-82
2021/06/17 10:20:12;;;;;;;6.23;5.77;;;36.40;46.10;;;;;;5121631;28;20198;-85
2021/06/17 10:22:39;;;;;;;6.53;5.93;;;37.00;44.00;;;;;;5124143;27;20210;-83
2021/06/17 10:25:07;;;;;;;8.80;6.20;;;37.50;49.60;;;;;;5123180;28;20413;-83
2021/06/17 10:27:41;;;;;;;6.60;6.00;;;36.90;34.50;;;;;;5123640;27;20506;-84
2021/06/17 10:30:09;;;;;;;6.57;6.03;;;36.60;28.60;;;;;;5131375;27;20443;-83
2021/06/17 10:32:41;;;;;;;6.33;5.90;;;37.00;35.80;;;;;;5141431;27;20499;-83
2021/06/17 10:35:08;;;;;;;7.20;6.60;;;37.80;33.70;;;;;;5111936;28;20413;-88
2021/06/17 10:37:48;;;;;;;6.50;5.90;;;37.60;29.60;;;;;;5125780;27;20463;-81
2021/06/17 10:40:13;;;;;;;5.77;5.30;;;38.00;27.60;;;;;;5127782;27;20419;-83
2021/06/17 10:42:42;;;;;;;5.87;5.33;;;37.00;15.50;;;;;;5120248;28;20416;-83
2021/06/17 10:45:10;;;;;;;5.87;5.40;;;36.80;15.80;;;;;;5119083;28;20250;-84
2021/06/17 10:47:43;;;;;;;5.70;5.30;;;37.20;14.20;;;;;;5118103;27;20561;-84
2021/06/17 10:50:34;;;;;;;5.10;4.70;;;37.00;7.80;;;;;;5124415;27;20956;-83
2021/06/17 10:53:19;;;;;;;5.60;5.10;;;37.60;11.30;;;;;;5120754;28;20517;-85
2021/06/17 10:55:56;;;;;;;5.83;5.37;;;37.40;6.40;;;;;;5113138;27;20521;-84
2021/06/17 10:58:40;;;;;;;5.63;5.20;;;37.50;4.00;;;;;;5143800;27;20459;-88
2021/06/17 11:01:34;;;;;;;5.50;5.10;;;37.30;1.00;;;;;;5153219;27;20415;-84
2021/06/17 11:04:07;;;;;;;5.30;4.80;;;37.30;1.00;;;;;;5145852;27;20919;-87
2021/06/17 11:06:51;;;;;;;5.57;5.10;;;38.00;3.60;;;;;;5132366;28;20459;-85
2021/06/17 11:09:39;;;;;;;5.83;5.30;;;38.70;14.10;;;;;;5132229;28;20442;-86
2021/06/17 11:12:17;;;;;;;4.80;4.50;;;38.80;1.00;;;;;;5132169;28;20833;-85
2021/06/17 11:14:50;;;;;;;4.93;4.53;;;38.40;1.00;;;;;;5133540;27;20416;-85
2021/06/17 11:17:33;;;;;;;5.20;4.70;;;37.30;1.00;;;;;;5134659;27;20480;-86
2021/06/17 11:20:02;;;;;;;5.10;4.80;;;37.60;1.00;;;;;;5134587;27;20413;-86
2021/06/17 11:22:34;;;;;;;5.27;4.87;;;37.50;1.00;;;;;;5135915;27;20420;-88
2021/06/17 11:25:19;;;;;;;5.00;4.60;;;37.40;1.00;;;;;;5135785;27;20405;-84
2021/06/17 11:28:04;;;;;;;5.97;5.00;;;37.60;1.00;;;;;;5134458;27;20470;-85
2021/06/17 11:30:39;;;;;;;4.83;4.53;;;38.40;1.00;;;;;;5139996;27;20775;-84
2021/06/17 11:33:19;;;;;;;5.63;5.23;;;38.60;1.00;;;;;;5156166;27;20789;-85
2021/06/17 11:35:57;;;;;;;6.60;6.20;;;38.20;1.00;;;;;;5156389;27;20417;-85
2021/06/17 11:38:29;;;;;;;6.60;5.00;;;37.70;1.00;;;;;;5154974;27;20902;-86
2021/06/17 11:40:55;;;;;;;6.60;6.10;;;37.80;1.00;;;;;;5156376;27;20449;-85
2021/06/17 11:43:29;;;;;;;5.80;5.50;;;37.90;1.00;;;;;;5156337;27;20446;-84
2021/06/17 11:45:55;;;;;;;5.90;5.47;;;38.10;1.00;;;;;;5156384;27;20538;-85
2021/06/17 11:48:22;;;;;;;6.27;5.87;;;37.80;1.00;;;;;;5155725;27;20918;-87
2021/06/17 11:50:52;;;;;;;6.90;6.30;;;37.80;1.00;;;;;;5143052;27;20409;-88
2021/06/17 11:53:20;;;;;;;7.30;6.70;;;38.20;1.00;;;;;;5133989;27;20500;-86
2021/06/17 11:55:46;;;;;;;6.60;6.20;;;38.00;1.00;;;;;;5145712;27;20430;-86
2021/06/17 11:58:12;;;;;;;6.00;5.60;;;38.60;1.00;;;;;;5154671;27;20506;-85
2021/06/17 12:00:38;;;;;;;6.33;5.83;;;38.90;1.00;;;;;;5155719;27;20499;-85
2021/06/17 12:03:23;;;;;;;5.63;5.23;;;38.00;1.00;;;;;;5145324;27;20175;-83
2021/06/17 12:05:49;;;;;;;5.83;5.47;;;37.80;1.00;;;;;;5166212;27;20193;-84
2021/06/17 12:08:15;;;;;;;5.97;5.40;;;37.60;1.00;;;;;;5178813;27;20451;-86
2021/06/17 12:10:42;;;;;;;5.57;5.27;;;38.20;1.00;;;;;;5159509;27;20412;-85
2021/06/17 12:13:10;;;;;;;5.93;5.63;;;38.20;1.00;;;;;;5159457;27;20283;-87
2021/06/17 12:15:41;;;;;;;6.50;5.87;;;38.10;1.00;;;;;;5158517;27;20411;-85
2021/06/17 12:18:08;;;;;;;6.33;5.80;;;37.60;1.00;;;;;;5160153;27;20835;-84
2021/06/17 12:20:35;;;;;;;6.00;5.30;;;37.70;1.00;;;;;;5165664;27;20439;-84
2021/06/17 12:23:01;;;;;;;6.00;5.57;;;38.20;1.00;;;;;;5157215;27;20431;-86
2021/06/17 12:25:33;;;;;;;6.20;5.47;;;37.50;1.00;;;;;;5161615;27;20400;-85
2021/06/17 12:28:01;;;;;;;5.67;5.30;;;37.90;1.00;;;;;;5158356;27;20420;-83
2021/06/17 12:30:42;;;;;;;6.53;6.00;;;38.00;1.00;;;;;;5149767;27;20409;-88
2021/06/17 12:33:10;;;;;;;5.63;5.23;;;37.50;1.00;;;;;;5114317;28;20425;-88
2021/06/17 12:35:40;;;;;;;6.73;6.23;;;37.40;1.00;;;;;;5114255;28;20482;-89
2021/06/17 12:38:06;;;;;;;6.73;6.23;;;37.20;1.00;;;;;;5114016;28;20408;-84
2021/06/17 12:40:41;;;;;;;6.63;6.00;;;37.50;1.00;;;;;;5114187;28;20413;-83
2021/06/17 12:43:39;;;;;;;5.90;5.50;;;38.00;1.00;;;;;;5121295;27;20224;-90
2021/06/17 12:46:07;;;;;;;5.83;5.33;;;38.60;1.00;;;;;;5122162;27;20468;-86
2021/06/17 12:48:59;;;;;;;6.33;5.93;;;37.60;1.00;;;;;;5122844;27;20506;-84
2021/06/17 12:54:25;;;;;;;5.87;5.30;;;37.20;1.00;;;;;;5124916;27;20404;-87
2021/06/17 12:57:06;;;;;;;5.67;5.37;;;37.40;1.00;;;;;;5122908;27;20439;-88
2021/06/17 12:59:56;;;;;;;5.40;5.00;;;37.00;1.00;;;;;;5128710;27;20413;-88
2021/06/17 13:02:22;;;;;;;5.00;4.60;;;37.90;1.00;;;;;;5123462;27;20761;-91
2021/06/17 13:05:18;;;;;;;5.17;4.70;;;38.00;1.00;;;;;;5123788;27;20401;-91
2021/06/17 13:08:03;;;;;;;5.87;4.97;;;38.10;1.00;;;;;;5131536;27;20678;-82